createdAt,value
2023-01-09T00:00:23.829Z,66.50
2023-01-09T00:03:33.766Z,66.20
2023-01-09T00:06:08.097Z,66.70
2023-01-09T00:08:37.163Z,66.80
2023-01-09T00:11:06.125Z,67.00
2023-01-09T00:13:34.961Z,67.40
2023-01-09T00:16:04.882Z,67.70
2023-01-09T00:18:35.304Z,68.00
2023-01-09T00:21:05.427Z,70.20
2023-01-09T00:23:34.195Z,82.30
2023-01-09T00:26:08.956Z,77.10
2023-01-09T00:28:37.863Z,77.10
2023-01-09T00:31:08.950Z,76.80
2023-01-09T00:33:42.699Z,78.90
2023-01-09T00:36:12.090Z,73.70
2023-01-09T00:38:41.355Z,72.50
2023-01-09T00:41:18.148Z,72.00
2023-01-09T00:43:51.374Z,71.10
2023-01-09T00:46:22.128Z,74.00
2023-01-09T00:48:52.840Z,72.70
2023-01-09T00:51:22.316Z,72.10
2023-01-09T00:53:52.262Z,71.20
2023-01-09T00:56:23.872Z,75.80
2023-01-09T00:58:53.869Z,72.00
2023-01-09T01:01:22.583Z,69.80
2023-01-09T01:03:52.726Z,67.70
2023-01-09T01:06:38.621Z,66.80
2023-01-09T01:09:07.107Z,66.30
2023-01-09T01:11:35.911Z,65.80
2023-01-09T01:14:04.352Z,65.30
2023-01-09T01:45:33.103Z,63.50
2023-01-09T01:48:08.168Z,63.50
2023-01-09T01:50:44.068Z,63.30
2023-01-09T01:53:16.352Z,63.20
2023-01-09T01:55:51.125Z,63.10
2023-01-09T01:58:20.044Z,63.10
2023-01-09T02:00:49.700Z,63.80
2023-01-09T02:03:24.464Z,63.80
2023-01-09T02:05:53.292Z,63.40
2023-01-09T02:08:22.943Z,63.50
2023-01-09T02:10:52.476Z,63.30
2023-01-09T02:13:21.602Z,63.30
2023-01-09T02:16:07.307Z,63.70
2023-01-09T02:18:54.748Z,63.40
2023-01-09T02:21:37.492Z,63.30
2023-01-09T02:24:36.544Z,63.00
2023-01-09T02:27:26.550Z,63.10
2023-01-09T02:30:27.672Z,62.90
2023-01-09T02:33:08.395Z,62.70
2023-01-09T02:35:54.843Z,63.10
2023-01-09T02:38:33.140Z,63.20
2023-01-09T02:41:10.296Z,63.40
2023-01-09T02:43:41.277Z,63.60
2023-01-09T02:46:21.385Z,64.10
2023-01-09T02:48:54.163Z,63.80
2023-01-09T02:51:34.961Z,64.90
2023-01-09T02:54:15.658Z,65.50
2023-01-09T02:57:06.617Z,67.40
2023-01-09T02:59:42.418Z,66.00
2023-01-09T03:02:34.587Z,67.40
2023-01-09T03:05:12.594Z,65.70
2023-01-09T03:07:46.685Z,63.80
2023-01-09T03:10:21.847Z,63.90
2023-01-09T03:12:54.516Z,64.00
2023-01-09T03:47:04.235Z,63.60
2023-01-09T03:49:33.809Z,64.20
2023-01-09T03:52:02.314Z,64.50
2023-01-09T03:54:30.806Z,64.70
2023-01-09T03:56:59.227Z,64.80
2023-01-09T03:59:27.939Z,62.10
2023-01-09T04:01:56.469Z,61.10
2023-01-09T04:04:26.444Z,61.50
2023-01-09T04:06:54.964Z,61.50
2023-01-09T04:09:23.482Z,61.50
2023-01-09T04:11:52.113Z,61.30
2023-01-09T04:14:20.703Z,61.40
2023-01-09T04:45:21.212Z,61.10
2023-01-09T04:47:50.246Z,62.10
2023-01-09T04:50:19.535Z,63.40
2023-01-09T04:52:48.148Z,63.40
2023-01-09T04:55:16.732Z,63.60
2023-01-09T04:57:45.847Z,63.90
2023-01-09T05:00:15.377Z,64.00
2023-01-09T05:02:45.359Z,64.00
2023-01-09T05:05:13.866Z,64.50
2023-01-09T05:07:42.380Z,64.60
2023-01-09T05:10:12.632Z,64.20
2023-01-09T05:12:41.293Z,63.80
2023-01-09T05:31:00.637Z,63.00
2023-01-09T05:33:29.149Z,63.30
2023-01-09T05:35:57.676Z,63.90
2023-01-09T05:38:26.569Z,64.20
2023-01-09T05:40:55.061Z,64.40
2023-01-09T05:43:23.562Z,63.90
2023-01-09T05:45:52.164Z,62.80
2023-01-09T05:48:22.124Z,63.00
2023-01-09T05:50:50.726Z,63.10
2023-01-09T05:53:19.837Z,62.80
2023-01-09T05:55:48.340Z,62.90
2023-01-09T05:58:17.085Z,62.90
2023-01-09T06:00:45.576Z,62.90
2023-01-09T06:03:14.203Z,62.60
2023-01-09T06:05:44.279Z,58.70
2023-01-09T06:08:12.824Z,58.70
2023-01-09T06:10:41.787Z,58.70
2023-01-09T06:13:10.258Z,58.50
2023-01-09T06:15:38.840Z,58.40
2023-01-09T06:18:07.391Z,58.60
2023-01-09T06:20:35.977Z,58.70
2023-01-09T06:23:05.920Z,58.60
2023-01-09T06:25:34.438Z,58.70
2023-01-09T06:28:03.310Z,59.30
2023-01-09T06:30:31.937Z,59.30
2023-01-09T06:33:00.347Z,59.00
2023-01-09T06:35:29.276Z,58.90
2023-01-09T06:38:01.502Z,58.70
2023-01-09T06:40:31.593Z,58.40
2023-01-09T06:43:00.408Z,58.20
2023-01-09T06:45:29.294Z,59.20
2023-01-09T06:47:57.962Z,58.30
2023-01-09T06:50:26.546Z,58.70
2023-01-09T06:52:55.167Z,59.20
2023-01-09T06:55:23.793Z,59.10
2023-01-09T06:57:53.807Z,59.10
2023-01-09T07:00:23.011Z,59.80
2023-01-09T07:02:51.543Z,58.80
2023-01-09T07:05:20.118Z,59.60
2023-01-09T07:07:53.422Z,60.00
2023-01-09T07:10:22.111Z,59.80
2023-01-09T07:12:50.796Z,58.90
2023-01-09T07:15:21.627Z,58.80
2023-01-09T07:17:52.046Z,58.70
2023-01-09T07:20:26.313Z,58.80
2023-01-09T07:22:55.001Z,58.60
2023-01-09T07:25:24.008Z,59.10
2023-01-09T07:27:52.499Z,59.10
2023-01-09T07:30:22.349Z,58.90
2023-01-09T07:32:50.842Z,59.20
2023-01-09T07:35:19.456Z,59.10
2023-01-09T07:37:48.382Z,58.90
2023-01-09T07:40:16.972Z,58.80
2023-01-09T07:42:45.359Z,58.80
2023-01-09T07:45:13.852Z,58.80
2023-01-09T07:47:43.977Z,58.80
2023-01-09T07:50:13.070Z,58.80
2023-01-09T07:52:41.604Z,58.30
2023-01-09T07:55:11.439Z,58.30
2023-01-09T07:57:39.840Z,58.30
2023-01-09T08:47:07.640Z,58.40
2023-01-09T08:49:37.730Z,58.90
2023-01-09T08:52:07.841Z,58.60
2023-01-09T08:54:38.837Z,58.60
2023-01-09T08:57:09.551Z,59.80
2023-01-09T08:59:38.191Z,58.90
2023-01-09T09:46:23.555Z,58.20
2023-01-09T09:48:57.369Z,58.90
2023-01-09T09:51:54.707Z,59.80
2023-01-09T09:54:30.813Z,59.30
2023-01-09T09:57:03.627Z,59.00
2023-01-09T09:59:36.865Z,59.40
2023-01-09T10:30:41.210Z,57.20
2023-01-09T10:33:31.090Z,57.20
2023-01-09T10:36:23.935Z,57.10
2023-01-09T10:38:56.625Z,57.10
2023-01-09T10:41:30.638Z,57.10
2023-01-09T10:44:04.277Z,57.40
2023-01-09T10:46:42.818Z,58.60
2023-01-09T10:49:17.040Z,58.20
2023-01-09T10:51:49.875Z,57.90
2023-01-09T10:54:21.631Z,57.70
2023-01-09T10:57:01.735Z,57.40
2023-01-09T10:59:31.168Z,57.10
2023-01-09T11:02:02.420Z,57.10
2023-01-09T11:04:34.035Z,57.20
2023-01-09T11:07:07.342Z,56.90
2023-01-09T11:09:59.126Z,57.10
2023-01-09T11:12:30.450Z,57.00
2023-01-09T11:15:32.064Z,57.40
2023-01-09T11:18:27.839Z,57.10
2023-01-09T11:21:13.217Z,57.00
2023-01-09T11:23:41.753Z,57.30
2023-01-09T11:26:25.057Z,57.10
2023-01-09T11:29:13.716Z,56.90
2023-01-09T11:31:44.051Z,57.00
2023-01-09T11:34:21.740Z,56.90
2023-01-09T11:36:52.499Z,57.20
2023-01-09T11:39:25.382Z,57.80
2023-01-09T11:41:56.142Z,56.80
2023-01-09T11:44:25.720Z,57.10
2023-01-09T11:46:54.626Z,57.10
2023-01-09T11:49:27.268Z,57.00
2023-01-09T11:52:22.557Z,57.30
2023-01-09T11:54:55.261Z,56.90
2023-01-09T11:57:25.867Z,56.90
2023-01-09T11:59:57.989Z,57.00
2023-01-09T12:02:53.695Z,57.20
2023-01-09T12:05:37.527Z,56.90
2023-01-09T12:08:29.179Z,57.00
2023-01-09T12:11:24.015Z,57.00
2023-01-09T12:14:19.091Z,57.00
2023-01-09T12:17:08.008Z,57.10
2023-01-09T12:19:56.202Z,57.10
2023-01-09T12:22:34.365Z,57.20
2023-01-09T12:25:18.220Z,57.20
2023-01-09T12:28:12.337Z,57.30
2023-01-09T12:30:58.362Z,57.30
2023-01-09T12:33:40.863Z,57.20
2023-01-09T12:36:24.181Z,57.40
2023-01-09T12:38:59.587Z,57.30
2023-01-09T12:42:18.842Z,57.50
2023-01-09T12:45:02.883Z,57.40
2023-01-09T12:47:46.980Z,57.40
2023-01-09T12:50:50.872Z,57.40
2023-01-09T12:53:25.785Z,57.10
2023-01-09T12:56:04.306Z,57.50
2023-01-09T12:58:44.555Z,57.40
2023-01-09T13:01:19.879Z,57.50
2023-01-09T13:03:54.850Z,57.50
2023-01-09T13:06:25.712Z,57.60
2023-01-09T13:09:02.796Z,57.70
2023-01-09T13:11:38.797Z,57.70
2023-01-09T13:14:14.675Z,57.80
2023-01-09T13:16:48.540Z,57.90
2023-01-09T13:19:22.810Z,57.80
2023-01-09T13:21:52.327Z,57.70
2023-01-09T13:24:28.471Z,57.80
2023-01-09T13:27:01.017Z,57.70
2023-01-09T13:29:32.945Z,57.80
2023-01-09T13:32:36.422Z,57.90
2023-01-09T13:35:05.725Z,57.80
2023-01-09T13:37:37.675Z,57.80
2023-01-09T13:40:26.645Z,57.80
2023-01-09T13:43:02.077Z,57.50
2023-01-09T13:45:33.890Z,57.40
2023-01-09T13:48:39.960Z,57.70
2023-01-09T13:51:56.666Z,57.80
2023-01-09T13:55:24.803Z,57.90
2023-01-09T13:58:25.079Z,57.90
2023-01-09T14:01:00.890Z,57.90
2023-01-09T14:03:36.328Z,58.00
2023-01-09T14:06:17.594Z,58.20
2023-01-09T14:08:52.312Z,58.70
2023-01-09T14:11:27.824Z,58.90
2023-01-09T14:14:22.183Z,58.90
2023-01-09T14:16:50.875Z,59.10
2023-01-09T14:19:37.068Z,59.30
2023-01-09T14:22:06.794Z,58.90
2023-01-09T14:24:43.810Z,59.10
2023-01-09T14:28:06.344Z,59.10
2023-01-09T14:30:39.546Z,58.90
2023-01-09T14:33:27.347Z,59.00
2023-01-09T14:36:06.659Z,59.10
2023-01-09T14:38:39.307Z,59.10
2023-01-09T14:41:20.895Z,59.10
2023-01-09T14:44:02.405Z,59.30
2023-01-09T14:46:39.339Z,59.20
2023-01-09T14:49:17.162Z,59.30
2023-01-09T14:51:48.215Z,59.10
2023-01-09T14:54:28.853Z,59.10
2023-01-09T14:56:57.446Z,58.80
2023-01-09T14:59:26.079Z,59.00
2023-01-09T15:01:59.470Z,58.70
2023-01-09T15:04:35.705Z,58.70
2023-01-09T15:07:05.823Z,58.30
2023-01-09T15:09:44.285Z,58.20
2023-01-09T15:12:20.624Z,58.70
2023-01-09T15:14:53.411Z,58.40
2023-01-09T15:17:26.764Z,57.80
2023-01-09T15:19:56.491Z,58.10
2023-01-09T15:22:32.310Z,58.20
2023-01-09T15:25:15.963Z,57.90
2023-01-09T15:27:56.432Z,57.90
2023-01-09T15:30:29.971Z,57.70
2023-01-09T15:33:00.290Z,57.20
2023-01-09T15:35:31.957Z,57.60
2023-01-09T15:38:00.765Z,58.10
2023-01-09T15:40:34.520Z,58.50
2023-01-09T15:43:05.244Z,58.50
2023-01-09T15:45:38.460Z,58.60
2023-01-09T15:48:25.424Z,58.90
2023-01-09T15:50:58.881Z,59.20
2023-01-09T15:53:29.242Z,60.40
2023-01-09T15:56:07.433Z,61.70
2023-01-09T15:58:37.992Z,67.70
2023-01-09T16:01:14.150Z,63.90
2023-01-09T16:03:44.387Z,63.30
2023-01-09T16:06:20.873Z,63.40
2023-01-09T16:08:55.845Z,64.00
2023-01-09T16:11:27.103Z,65.20
2023-01-09T16:13:59.522Z,63.60
2023-01-09T16:16:32.557Z,65.30
2023-01-09T16:19:03.044Z,64.00
2023-01-09T16:21:35.303Z,63.50
2023-01-09T16:24:22.885Z,63.00
2023-01-09T16:26:54.273Z,63.10
2023-01-09T16:29:37.440Z,62.90
2023-01-09T16:32:08.060Z,62.70
2023-01-09T16:34:44.110Z,62.50
2023-01-09T16:37:14.355Z,62.80
2023-01-09T16:39:44.746Z,63.00
2023-01-09T16:42:30.796Z,62.70
2023-01-09T16:45:00.518Z,64.30
2023-01-09T16:47:29.002Z,70.00
2023-01-09T16:50:00.146Z,70.00
2023-01-09T16:52:28.951Z,71.80
2023-01-09T16:54:58.399Z,71.80
2023-01-09T16:57:27.100Z,72.80
2023-01-09T16:59:56.716Z,73.30
2023-01-09T17:02:25.264Z,72.80
2023-01-09T17:04:55.269Z,73.40
2023-01-09T17:07:26.299Z,73.40
2023-01-09T17:09:54.936Z,72.20
2023-01-09T17:12:25.773Z,71.60
2023-01-09T17:14:54.721Z,70.40
2023-01-09T17:17:23.277Z,70.30
2023-01-09T17:19:51.840Z,70.10
2023-01-09T17:22:20.413Z,69.50
2023-01-09T17:25:13.317Z,69.00
2023-01-09T17:27:59.088Z,68.70
2023-01-09T17:30:27.572Z,68.40
2023-01-09T17:32:56.073Z,68.00
2023-01-09T17:35:24.605Z,68.00
2023-01-09T17:37:53.167Z,67.70
2023-01-09T17:40:24.830Z,67.20
2023-01-09T17:42:53.424Z,67.90
2023-01-09T17:45:21.962Z,69.50
2023-01-09T17:47:50.558Z,68.90
2023-01-09T17:50:21.956Z,71.00
2023-01-09T17:52:51.014Z,69.40
2023-01-09T17:55:19.460Z,71.00
2023-01-09T17:57:49.544Z,70.00
2023-01-09T18:00:27.475Z,69.60
2023-01-09T18:02:57.595Z,68.80
2023-01-09T18:05:28.497Z,69.00
2023-01-09T18:07:57.776Z,68.60
2023-01-09T18:10:28.496Z,68.90
2023-01-09T18:12:58.743Z,68.40
2023-01-09T18:15:27.407Z,68.40
2023-01-09T18:17:56.131Z,68.30
2023-01-09T18:20:25.474Z,68.10
2023-01-09T18:22:54.098Z,68.20
2023-01-09T18:25:22.808Z,67.60
2023-01-09T18:27:51.755Z,67.00
2023-01-09T18:30:21.905Z,67.40
2023-01-09T18:32:50.336Z,67.10
2023-01-09T18:35:18.841Z,66.10
2023-01-09T18:37:48.217Z,65.70
2023-01-09T18:40:17.317Z,64.50
2023-01-09T18:42:47.098Z,64.10
2023-01-09T18:45:15.783Z,63.50
2023-01-09T18:47:45.621Z,63.40
2023-01-09T18:50:14.352Z,63.20
2023-01-09T18:52:43.296Z,63.00
2023-01-09T18:55:12.436Z,62.60
2023-01-09T18:57:41.480Z,63.50
2023-01-09T19:00:12.226Z,62.30
2023-01-09T19:02:40.996Z,62.30
2023-01-09T19:05:11.286Z,62.10
2023-01-09T19:07:39.747Z,62.20
2023-01-09T19:10:10.553Z,61.90
2023-01-09T19:12:39.790Z,61.60
2023-01-09T19:15:11.663Z,61.90
2023-01-09T19:17:40.816Z,61.00
2023-01-09T19:20:14.336Z,60.80
2023-01-09T19:22:43.176Z,61.30
2023-01-09T19:25:12.503Z,60.40
2023-01-09T19:27:40.966Z,60.90
2023-01-09T19:30:12.307Z,66.30
2023-01-09T19:32:41.513Z,66.80
2023-01-09T19:35:11.706Z,67.10
2023-01-09T19:37:40.215Z,67.10
2023-01-09T19:40:10.436Z,70.00
2023-01-09T19:42:39.828Z,70.20
2023-01-09T19:45:13.031Z,69.40
2023-01-09T19:47:42.630Z,67.50
2023-01-09T19:50:13.085Z,67.30
2023-01-09T19:52:43.319Z,71.20
2023-01-09T19:55:13.817Z,74.20
2023-01-09T19:57:43.032Z,72.50
2023-01-09T20:00:13.563Z,71.90
2023-01-09T20:02:43.196Z,73.50
2023-01-09T20:05:13.117Z,77.20
2023-01-09T20:07:41.827Z,78.60
2023-01-09T20:10:11.871Z,74.00
2023-01-09T20:12:40.406Z,70.80
2023-01-09T20:15:14.823Z,67.00
2023-01-09T20:17:43.617Z,65.40
2023-01-09T20:20:16.316Z,64.50
2023-01-09T20:22:45.132Z,63.70
2023-01-09T20:25:13.726Z,63.10
2023-01-09T20:27:42.347Z,62.40
2023-01-09T20:30:12.907Z,61.90
2023-01-09T20:32:42.323Z,61.50
2023-01-09T20:35:12.558Z,62.10
2023-01-09T20:37:41.249Z,61.50
2023-01-09T20:40:12.193Z,61.10
2023-01-09T20:42:42.360Z,61.50
2023-01-09T20:45:11.966Z,60.60
2023-01-09T20:47:40.592Z,60.40
2023-01-09T20:50:13.196Z,60.60
2023-01-09T20:52:41.657Z,60.10
2023-01-09T20:55:10.974Z,60.40
2023-01-09T20:57:39.888Z,60.40
2023-01-09T21:00:10.663Z,60.60
2023-01-09T21:02:39.264Z,60.70
2023-01-09T21:05:09.098Z,60.80
2023-01-09T21:07:39.296Z,60.70
2023-01-09T21:10:09.327Z,61.00
2023-01-09T21:12:38.444Z,60.10
2023-01-09T21:15:12.631Z,59.80
2023-01-09T21:17:42.190Z,59.80
2023-01-09T21:20:14.692Z,59.80
2023-01-09T21:22:44.828Z,59.80
2023-01-09T21:25:13.384Z,59.80
2023-01-09T21:27:44.230Z,59.70
2023-01-09T21:30:13.784Z,59.70
2023-01-09T21:32:42.276Z,60.40
2023-01-09T21:35:10.963Z,60.60
2023-01-09T21:37:39.626Z,60.70
2023-01-09T21:40:14.731Z,60.40
2023-01-09T21:43:00.837Z,59.90
2023-01-09T21:45:46.995Z,59.90
2023-01-09T21:48:15.658Z,59.80
2023-01-09T21:50:44.332Z,59.90
2023-01-09T21:53:12.888Z,60.10
2023-01-09T21:55:42.678Z,60.20
2023-01-09T21:58:11.974Z,61.00
2023-01-09T22:00:41.818Z,60.80
2023-01-09T22:03:18.535Z,60.20
2023-01-09T22:05:46.954Z,59.20
2023-01-09T22:08:15.514Z,58.50
2023-01-09T22:10:45.527Z,58.60
2023-01-09T22:13:16.039Z,58.90
2023-01-09T22:15:47.399Z,58.60
2023-01-09T22:18:16.014Z,58.80
2023-01-09T22:20:45.966Z,57.80
2023-01-09T22:23:14.522Z,56.80
2023-01-09T22:25:44.468Z,55.90
2023-01-09T22:28:12.943Z,55.80
2023-01-09T22:30:41.936Z,56.00
2023-01-09T22:33:12.163Z,56.30
2023-01-09T22:35:42.200Z,56.30
2023-01-09T22:38:12.037Z,56.50
2023-01-09T22:40:41.390Z,56.40
2023-01-09T22:43:16.068Z,56.30
2023-01-09T22:45:44.697Z,56.50
2023-01-09T22:48:13.095Z,56.70
2023-01-09T22:50:41.496Z,57.20
2023-01-09T22:53:10.808Z,57.40
2023-01-09T22:55:39.393Z,57.50
2023-01-09T22:58:07.830Z,57.80
2023-01-09T23:00:37.980Z,57.70
2023-01-09T23:03:06.672Z,57.50
2023-01-09T23:05:35.179Z,57.50
2023-01-09T23:08:03.621Z,57.50
2023-01-09T23:10:32.211Z,57.70
2023-01-09T23:13:00.931Z,57.80
